Time;durP1;ratioP1;P1;durP2;ratioP2;P2;SDS_P1;SDS_P2;PMS_P1;PMS_P2;Temp;Humidity;BMP_temperature;BMP_pressure;BME280_temperature;BME280_humidity;BME280_pressure;Samples;Min_cycle;Max_cycle;Signal;HPM_P1;HPM_P2
2023/07/11 00:02:00;;;;;;;8.20;5.22;;;;;;;;;;4935340;29;20125;-79
2023/07/11 00:04:26;;;;;;;6.15;5.45;;;;;;;;;;4935852;29;20113;-79
2023/07/11 00:06:52;;;;;;;7.97;5.18;;;;;;;;;;4935441;29;20031;-79
2023/07/11 00:09:19;;;;;;;9.93;5.28;;;;;;;;;;4935543;29;20417;-79
2023/07/11 00:11:45;;;;;;;8.48;5.53;;;;;;;;;;4935561;29;20038;-79
2023/07/11 00:14:11;;;;;;;7.22;5.03;;;;;;;;;;4935399;29;20117;-78
2023/07/11 00:16:37;;;;;;;8.82;5.03;;;;;;;;;;4936090;29;20480;-78
2023/07/11 00:19:03;;;;;;;6.00;5.10;;;;;;;;;;4949799;29;20050;-80
2023/07/11 00:21:29;;;;;;;8.35;5.72;;;;;;;;;;4940808;29;20019;-79
2023/07/11 00:24:03;;;;;;;8.60;5.43;;;;;;;;;;4941252;29;20038;-79
2023/07/11 00:26:32;;;;;;;7.78;5.50;;;;;;;;;;4955443;28;20046;-79
2023/07/11 00:29:13;;;;;;;7.55;5.30;;;;;;;;;;4952858;29;20019;-78
2023/07/11 00:31:38;;;;;;;7.03;5.22;;;;;;;;;;4953859;29;20023;-79
2023/07/11 00:34:04;;;;;;;6.70;5.75;;;;;;;;;;4939092;29;20043;-78
2023/07/11 00:36:29;;;;;;;5.10;4.65;;;;;;;;;;4940880;29;20043;-78
2023/07/11 00:38:55;;;;;;;10.90;5.22;;;;;;;;;;4950706;29;20400;-79
2023/07/11 00:41:20;;;;;;;12.93;6.47;;;;;;;;;;4952267;29;20110;-79
2023/07/11 00:43:46;;;;;;;9.13;6.97;;;;;;;;;;4934751;29;20554;-78
2023/07/11 00:46:16;;;;;;;10.25;6.95;;;;;;;;;;4952565;29;20110;-78
2023/07/11 00:49:00;;;;;;;11.77;7.47;;;;;;;;;;4952571;29;20027;-79
2023/07/11 00:51:45;;;;;;;8.07;6.53;;;;;;;;;;4934701;29;20125;-80
2023/07/11 00:54:14;;;;;;;16.77;8.73;;;;;;;;;;4934716;29;20038;-80
2023/07/11 00:56:44;;;;;;;10.18;7.68;;;;;;;;;;4934710;29;20027;-77
2023/07/11 00:59:10;;;;;;;9.13;7.30;;;;;;;;;;4922212;29;20035;-77
2023/07/11 01:01:36;;;;;;;9.90;8.10;;;;;;;;;;4938299;29;20046;-78
2023/07/11 01:04:05;;;;;;;10.40;8.15;;;;;;;;;;4955437;29;20030;-78
2023/07/11 01:06:31;;;;;;;11.55;7.65;;;;;;;;;;4938193;29;20023;-77
2023/07/11 01:08:58;;;;;;;11.25;7.97;;;;;;;;;;4955728;29;20360;-78
2023/07/11 01:11:29;;;;;;;9.95;7.97;;;;;;;;;;4955835;28;20210;-77
2023/07/11 01:13:55;;;;;;;10.90;7.75;;;;;;;;;;4955553;29;20046;-78
2023/07/11 01:16:21;;;;;;;9.52;7.80;;;;;;;;;;4938400;29;20121;-78
2023/07/11 01:18:47;;;;;;;10.85;8.05;;;;;;;;;;4938050;29;20039;-77
2023/07/11 01:21:19;;;;;;;12.27;8.73;;;;;;;;;;4955487;29;20423;-78
2023/07/11 01:23:46;;;;;;;10.70;8.40;;;;;;;;;;4955601;29;20050;-78
2023/07/11 01:26:12;;;;;;;13.18;8.25;;;;;;;;;;4942535;29;20054;-76
2023/07/11 01:28:39;;;;;;;10.70;8.23;;;;;;;;;;4966199;29;20024;-77
2023/07/11 01:31:05;;;;;;;10.45;8.07;;;;;;;;;;4956294;29;20085;-77
2023/07/11 01:33:31;;;;;;;11.27;9.10;;;;;;;;;;4938650;29;20027;-78
2023/07/11 01:35:57;;;;;;;12.32;9.30;;;;;;;;;;4938172;29;20023;-77
2023/07/11 01:38:24;;;;;;;11.63;9.38;;;;;;;;;;4938166;29;20365;-78
2023/07/11 01:40:50;;;;;;;10.90;8.68;;;;;;;;;;4955931;29;20058;-76
2023/07/11 01:43:17;;;;;;;10.55;8.88;;;;;;;;;;4939106;29;20066;-77
2023/07/11 01:45:43;;;;;;;9.75;8.75;;;;;;;;;;4938719;29;20034;-78
2023/07/11 01:48:08;;;;;;;12.35;9.27;;;;;;;;;;4954843;29;20023;-78
2023/07/11 01:50:34;;;;;;;14.70;9.65;;;;;;;;;;4937745;29;20038;-77
2023/07/11 01:53:00;;;;;;;12.10;9.40;;;;;;;;;;4937628;29;20400;-77
2023/07/11 01:55:25;;;;;;;10.60;8.77;;;;;;;;;;4938967;29;20118;-76
2023/07/11 01:57:51;;;;;;;12.52;9.88;;;;;;;;;;4945952;29;20031;-77
2023/07/11 02:00:17;;;;;;;12.88;9.52;;;;;;;;;;4950356;29;20023;-78
2023/07/11 02:02:43;;;;;;;14.40;9.95;;;;;;;;;;4966649;29;20535;-79
2023/07/11 02:05:08;;;;;;;12.30;9.02;;;;;;;;;;4947873;29;20031;-79
2023/07/11 02:07:34;;;;;;;16.02;9.57;;;;;;;;;;4941688;29;20055;-79
2023/07/11 02:09:59;;;;;;;12.27;9.23;;;;;;;;;;4936397;29;20031;-80
2023/07/11 02:12:25;;;;;;;14.85;10.05;;;;;;;;;;4937789;29;20263;-79
2023/07/11 02:14:51;;;;;;;17.33;10.75;;;;;;;;;;4937385;29;20031;-80
2023/07/11 02:17:16;;;;;;;12.70;9.98;;;;;;;;;;4954951;29;20585;-79
2023/07/11 02:19:44;;;;;;;18.63;11.18;;;;;;;;;;4937330;29;20147;-79
2023/07/11 02:22:11;;;;;;;14.25;10.85;;;;;;;;;;4937240;29;20118;-79
2023/07/11 02:24:38;;;;;;;14.18;10.30;;;;;;;;;;4936316;29;20565;-79
2023/07/11 02:27:04;;;;;;;15.85;10.93;;;;;;;;;;4937592;29;20035;-80
2023/07/11 02:29:29;;;;;;;12.30;10.38;;;;;;;;;;4940477;29;20114;-79
2023/07/11 02:31:55;;;;;;;12.63;10.63;;;;;;;;;;4959701;29;20111;-80
2023/07/11 02:34:20;;;;;;;14.48;10.82;;;;;;;;;;4941076;29;20027;-80
2023/07/11 02:36:46;;;;;;;13.15;8.85;;;;;;;;;;4938839;29;20046;-80
2023/07/11 02:39:12;;;;;;;15.10;11.27;;;;;;;;;;4954938;29;20031;-80
2023/07/11 02:41:38;;;;;;;11.57;9.95;;;;;;;;;;4954379;29;20036;-79
2023/07/11 02:44:03;;;;;;;11.82;9.85;;;;;;;;;;4936620;29;20035;-80
2023/07/11 02:46:29;;;;;;;18.80;10.60;;;;;;;;;;4954470;29;20678;-77
2023/07/11 02:48:55;;;;;;;13.32;10.85;;;;;;;;;;4937091;29;20037;-78
2023/07/11 02:51:21;;;;;;;13.00;10.68;;;;;;;;;;4936841;29;20547;-79
2023/07/11 02:53:47;;;;;;;11.48;10.07;;;;;;;;;;4936686;29;20047;-80
2023/07/11 02:56:12;;;;;;;18.45;10.60;;;;;;;;;;4936404;29;20090;-79
2023/07/11 02:58:38;;;;;;;18.13;10.07;;;;;;;;;;4953823;29;20373;-80
2023/07/11 03:01:04;;;;;;;16.08;9.90;;;;;;;;;;4936269;29;20023;-79
2023/07/11 03:03:29;;;;;;;13.20;9.73;;;;;;;;;;4936477;29;20380;-78
2023/07/11 03:05:56;;;;;;;23.30;10.93;;;;;;;;;;4952594;28;20392;-79
2023/07/11 03:08:22;;;;;;;12.32;9.50;;;;;;;;;;4935977;29;20066;-79
2023/07/11 03:10:47;;;;;;;12.10;9.73;;;;;;;;;;4935974;29;20058;-79
2023/07/11 03:13:15;;;;;;;14.75;9.70;;;;;;;;;;4953376;29;20094;-78
2023/07/11 03:15:41;;;;;;;14.07;9.80;;;;;;;;;;4935731;29;20031;-78
2023/07/11 03:18:08;;;;;;;12.30;9.68;;;;;;;;;;4935632;29;20026;-79
2023/07/11 03:20:38;;;;;;;13.23;9.75;;;;;;;;;;4935617;29;20121;-76
2023/07/11 03:23:04;;;;;;;12.45;9.95;;;;;;;;;;4953006;29;20389;-76
2023/07/11 03:25:29;;;;;;;14.52;10.52;;;;;;;;;;4935721;29;20079;-76
2023/07/11 03:27:55;;;;;;;14.65;9.85;;;;;;;;;;4952380;29;20073;-76
2023/07/11 03:30:20;;;;;;;16.50;10.10;;;;;;;;;;4953088;29;20097;-76
2023/07/11 03:32:46;;;;;;;14.10;11.18;;;;;;;;;;4953317;29;20039;-76
2023/07/11 03:35:12;;;;;;;12.68;8.50;;;;;;;;;;4953570;29;20126;-76
2023/07/11 03:37:37;;;;;;;17.95;10.30;;;;;;;;;;4937061;29;20395;-76
2023/07/11 03:40:03;;;;;;;10.93;9.25;;;;;;;;;;4954299;29;20031;-75
2023/07/11 03:42:29;;;;;;;12.82;9.82;;;;;;;;;;4952813;29;20020;-75
2023/07/11 03:44:55;;;;;;;14.77;10.05;;;;;;;;;;4936463;29;20034;-74
2023/07/11 03:47:20;;;;;;;14.23;9.38;;;;;;;;;;4936429;29;20388;-77
2023/07/11 03:49:46;;;;;;;13.52;9.52;;;;;;;;;;4954426;29;20065;-75
2023/07/11 03:52:11;;;;;;;14.48;9.82;;;;;;;;;;4963341;28;20054;-75
2023/07/11 03:54:37;;;;;;;12.52;10.05;;;;;;;;;;4957881;28;20023;-75
2023/07/11 03:57:02;;;;;;;18.15;10.35;;;;;;;;;;4955176;28;20089;-74
2023/07/11 03:59:28;;;;;;;11.25;9.77;;;;;;;;;;4938680;29;20043;-74
2023/07/11 04:01:53;;;;;;;12.65;9.38;;;;;;;;;;4937247;29;20369;-74
2023/07/11 04:04:19;;;;;;;15.70;10.50;;;;;;;;;;4954383;29;20038;-74
2023/07/11 04:06:45;;;;;;;15.20;10.70;;;;;;;;;;4937421;29;20047;-75
2023/07/11 04:09:10;;;;;;;13.52;9.35;;;;;;;;;;4936453;29;20058;-75
2023/07/11 04:11:36;;;;;;;15.30;11.30;;;;;;;;;;4952570;29;20058;-75
2023/07/11 04:14:02;;;;;;;14.18;11.23;;;;;;;;;;4953802;29;20036;-76
2023/07/11 04:16:27;;;;;;;13.40;9.90;;;;;;;;;;4936551;29;20027;-75
2023/07/11 04:18:52;;;;;;;20.30;10.48;;;;;;;;;;4953880;29;20035;-75
2023/07/11 04:21:18;;;;;;;16.17;10.35;;;;;;;;;;4953891;29;20115;-75
2023/07/11 04:23:44;;;;;;;14.98;10.25;;;;;;;;;;4952678;29;20038;-73
2023/07/11 04:26:09;;;;;;;16.92;10.40;;;;;;;;;;4955267;28;20046;-75
2023/07/11 04:28:35;;;;;;;13.82;10.70;;;;;;;;;;4954808;28;20038;-74
2023/07/11 04:31:01;;;;;;;16.42;10.13;;;;;;;;;;4970323;28;20482;-75
2023/07/11 04:33:27;;;;;;;15.05;11.88;;;;;;;;;;4954275;28;20034;-76
2023/07/11 04:35:52;;;;;;;14.13;10.90;;;;;;;;;;4964857;28;20050;-76
2023/07/11 04:38:19;;;;;;;20.80;10.40;;;;;;;;;;4952245;29;20055;-76
2023/07/11 04:40:46;;;;;;;12.18;9.15;;;;;;;;;;4934833;29;20130;-76
2023/07/11 04:43:12;;;;;;;14.00;9.95;;;;;;;;;;4934828;29;20126;-75
2023/07/11 04:45:37;;;;;;;13.52;10.02;;;;;;;;;;4952121;29;20110;-76
2023/07/11 04:48:03;;;;;;;20.17;11.18;;;;;;;;;;4934704;29;20043;-77
2023/07/11 04:50:29;;;;;;;13.68;10.65;;;;;;;;;;4934949;29;20035;-76
2023/07/11 04:52:55;;;;;;;12.55;9.93;;;;;;;;;;4934816;29;20059;-74
2023/07/11 04:55:20;;;;;;;15.57;10.20;;;;;;;;;;4934565;29;20031;-74
2023/07/11 04:57:46;;;;;;;17.05;9.75;;;;;;;;;;4952041;29;20067;-75
2023/07/11 05:00:12;;;;;;;14.30;9.63;;;;;;;;;;4934610;29;20063;-75
2023/07/11 05:02:38;;;;;;;14.40;10.10;;;;;;;;;;4951961;29;20102;-76
2023/07/11 05:05:03;;;;;;;12.95;9.90;;;;;;;;;;4934485;29;20492;-75
2023/07/11 05:07:29;;;;;;;13.43;9.10;;;;;;;;;;4934465;29;20030;-75
2023/07/11 05:09:54;;;;;;;14.82;10.95;;;;;;;;;;4934349;29;20024;-75
2023/07/11 05:12:20;;;;;;;14.85;10.05;;;;;;;;;;4952311;29;20031;-76
2023/07/11 05:14:45;;;;;;;12.27;9.27;;;;;;;;;;4934536;29;20110;-75
2023/07/11 05:17:12;;;;;;;10.25;7.40;;;;;;;;;;4935237;28;20561;-75
2023/07/11 05:19:37;;;;;;;14.13;10.52;;;;;;;;;;4952236;28;20054;-75
2023/07/11 05:22:03;;;;;;;24.55;11.38;;;;;;;;;;4933887;29;20556;-75
2023/07/11 05:24:29;;;;;;;11.25;9.95;;;;;;;;;;4949468;28;20094;-75
2023/07/11 05:26:58;;;;;;;12.93;8.70;;;;;;;;;;4949595;28;20035;-74
2023/07/11 05:29:24;;;;;;;14.15;9.27;;;;;;;;;;4951755;28;20368;-73
2023/07/11 05:31:49;;;;;;;15.70;9.15;;;;;;;;;;4953054;28;20027;-74
2023/07/11 05:34:18;;;;;;;12.85;9.15;;;;;;;;;;4943717;28;20467;-75
2023/07/11 05:36:45;;;;;;;11.98;8.88;;;;;;;;;;4953965;28;20496;-76
2023/07/11 05:39:13;;;;;;;9.82;8.60;;;;;;;;;;4922581;28;20412;-74
2023/07/11 05:41:44;;;;;;;15.90;10.52;;;;;;;;;;4939881;29;20035;-76
2023/07/11 05:44:11;;;;;;;15.52;9.43;;;;;;;;;;4940452;28;20039;-75
2023/07/11 05:46:37;;;;;;;19.35;11.13;;;;;;;;;;4957564;28;20035;-74
2023/07/11 05:49:04;;;;;;;14.00;9.35;;;;;;;;;;4936661;29;20492;-77
2023/07/11 05:51:30;;;;;;;9.73;8.73;;;;;;;;;;4942597;28;20031;-76
2023/07/11 05:53:56;;;;;;;15.50;9.20;;;;;;;;;;4932727;28;20049;-78
2023/07/11 05:56:22;;;;;;;14.27;9.13;;;;;;;;;;4960651;28;20034;-75
2023/07/11 05:58:49;;;;;;;15.82;8.75;;;;;;;;;;4953968;28;20042;-78
2023/07/11 06:01:18;;;;;;;11.60;7.95;;;;;;;;;;4946413;28;20045;-76
2023/07/11 06:03:46;;;;;;;14.32;8.90;;;;;;;;;;4945077;28;20041;-77
2023/07/11 06:06:15;;;;;;;9.82;8.07;;;;;;;;;;4961781;28;20074;-77
2023/07/11 06:08:41;;;;;;;14.48;8.52;;;;;;;;;;4951308;28;20042;-74
2023/07/11 06:11:07;;;;;;;12.10;8.10;;;;;;;;;;4964020;28;20027;-77
2023/07/11 06:13:38;;;;;;;13.98;8.93;;;;;;;;;;4951758;28;20026;-78
2023/07/11 06:16:08;;;;;;;12.27;8.27;;;;;;;;;;4946298;28;20480;-77
2023/07/11 06:18:36;;;;;;;12.43;7.68;;;;;;;;;;4941351;28;20354;-76
2023/07/11 06:21:03;;;;;;;18.75;9.43;;;;;;;;;;4937457;28;20039;-76
2023/07/11 06:23:29;;;;;;;15.07;7.75;;;;;;;;;;4937644;29;20121;-76
2023/07/11 06:25:55;;;;;;;10.32;7.18;;;;;;;;;;4959113;28;20126;-77
2023/07/11 06:28:20;;;;;;;11.82;7.93;;;;;;;;;;4937094;29;20070;-77
2023/07/11 06:30:49;;;;;;;11.27;8.40;;;;;;;;;;4957321;28;20043;-79
2023/07/11 06:33:17;;;;;;;14.23;6.90;;;;;;;;;;4942458;28;20027;-77
2023/07/11 06:35:48;;;;;;;10.30;6.75;;;;;;;;;;4955816;28;20046;-76
2023/07/11 06:38:18;;;;;;;10.35;6.53;;;;;;;;;;4948137;28;20038;-77
2023/07/11 06:40:52;;;;;;;10.05;7.63;;;;;;;;;;4941637;29;20098;-76
2023/07/11 06:43:18;;;;;;;10.32;6.18;;;;;;;;;;4958999;28;20141;-76
2023/07/11 06:45:48;;;;;;;11.05;6.00;;;;;;;;;;4949305;28;20142;-79
2023/07/11 06:48:16;;;;;;;9.02;5.15;;;;;;;;;;4934297;29;20046;-78
2023/07/11 06:50:50;;;;;;;7.25;5.07;;;;;;;;;;4941345;29;20035;-75
2023/07/11 06:53:16;;;;;;;7.30;4.45;;;;;;;;;;4948120;28;20245;-77
2023/07/11 06:55:50;;;;;;;9.80;5.40;;;;;;;;;;4937099;28;20089;-76
2023/07/11 06:58:17;;;;;;;28.60;6.90;;;;;;;;;;4935776;29;20113;-75
2023/07/11 07:00:50;;;;;;;7.20;4.95;;;;;;;;;;4929597;29;20030;-77
2023/07/11 07:03:16;;;;;;;10.88;4.55;;;;;;;;;;4943353;28;20122;-75
2023/07/11 07:05:55;;;;;;;11.43;4.70;;;;;;;;;;4954694;28;20027;-78
2023/07/11 07:08:22;;;;;;;6.60;4.15;;;;;;;;;;4965998;28;20089;-76
2023/07/11 07:10:49;;;;;;;9.48;4.93;;;;;;;;;;4950591;28;20113;-77
2023/07/11 07:13:16;;;;;;;6.72;4.05;;;;;;;;;;4938214;28;20126;-77
2023/07/11 07:15:48;;;;;;;5.00;3.60;;;;;;;;;;4943757;28;20106;-76
2023/07/11 07:18:13;;;;;;;7.05;4.30;;;;;;;;;;4944588;28;20058;-76
2023/07/11 07:20:39;;;;;;;5.32;4.55;;;;;;;;;;4933826;28;20117;-75
2023/07/11 07:23:05;;;;;;;14.57;5.63;;;;;;;;;;4938645;28;20379;-75
2023/07/11 07:25:34;;;;;;;8.18;4.85;;;;;;;;;;4932001;28;20039;-74
2023/07/11 07:27:59;;;;;;;6.85;4.43;;;;;;;;;;4928413;28;20035;-76
2023/07/11 07:30:25;;;;;;;11.98;4.32;;;;;;;;;;4936149;29;20028;-75
2023/07/11 07:32:50;;;;;;;7.30;4.22;;;;;;;;;;4955801;28;20853;-73
2023/07/11 07:35:16;;;;;;;7.50;4.60;;;;;;;;;;4933676;28;20031;-75
2023/07/11 07:37:42;;;;;;;6.32;4.18;;;;;;;;;;4954626;28;20031;-77
2023/07/11 07:40:08;;;;;;;10.10;4.93;;;;;;;;;;4951291;29;20118;-75
2023/07/11 07:42:35;;;;;;;9.88;4.50;;;;;;;;;;4941187;29;20554;-75
2023/07/11 07:45:00;;;;;;;6.40;3.90;;;;;;;;;;4939038;28;20480;-78
2023/07/11 07:47:29;;;;;;;6.28;4.28;;;;;;;;;;4958869;28;20055;-78
2023/07/11 07:49:55;;;;;;;7.55;4.90;;;;;;;;;;4924143;29;20106;-76
2023/07/11 07:52:21;;;;;;;12.55;4.45;;;;;;;;;;4950128;28;20113;-76
2023/07/11 07:54:46;;;;;;;8.88;4.80;;;;;;;;;;4947178;29;20504;-76
2023/07/11 07:57:12;;;;;;;11.95;4.05;;;;;;;;;;4927989;29;20670;-76
2023/07/11 07:59:37;;;;;;;6.28;4.57;;;;;;;;;;4948817;28;20023;-76
2023/07/11 08:02:03;;;;;;;8.93;3.95;;;;;;;;;;4931330;28;20042;-76
2023/07/11 08:04:30;;;;;;;6.38;4.25;;;;;;;;;;4948735;28;20023;-75
2023/07/11 08:06:56;;;;;;;10.60;4.50;;;;;;;;;;4951447;28;20035;-77
2023/07/11 08:09:22;;;;;;;9.93;4.72;;;;;;;;;;4957533;28;20090;-75
2023/07/11 08:11:47;;;;;;;9.57;4.45;;;;;;;;;;4935854;28;20029;-76
2023/07/11 08:14:13;;;;;;;7.72;4.45;;;;;;;;;;4930736;29;20031;-76
2023/07/11 08:16:39;;;;;;;8.95;4.72;;;;;;;;;;4947372;28;20051;-75
2023/07/11 08:19:06;;;;;;;6.10;4.20;;;;;;;;;;4948253;28;20468;-78
2023/07/11 08:21:32;;;;;;;5.53;4.35;;;;;;;;;;4926034;29;20090;-75
2023/07/11 08:23:59;;;;;;;8.00;4.82;;;;;;;;;;4943740;28;20038;-75
2023/07/11 08:26:26;;;;;;;5.90;4.15;;;;;;;;;;4917322;28;20335;-75
2023/07/11 08:28:51;;;;;;;5.53;4.22;;;;;;;;;;4939966;28;20023;-76
2023/07/11 08:31:18;;;;;;;8.05;4.88;;;;;;;;;;4929248;28;20137;-76
2023/07/11 08:33:44;;;;;;;5.40;4.13;;;;;;;;;;4932140;28;20046;-74
2023/07/11 08:36:10;;;;;;;10.07;4.93;;;;;;;;;;4933523;28;20027;-73
2023/07/11 08:38:35;;;;;;;8.23;4.78;;;;;;;;;;4932068;29;20089;-74
2023/07/11 08:41:20;;;;;;;10.07;6.10;;;;;;;;;;4950028;28;20122;-75
2023/07/11 08:43:47;;;;;;;5.63;5.00;;;;;;;;;;4931378;28;20034;-74
2023/07/11 08:46:14;;;;;;;5.07;4.10;;;;;;;;;;4934351;28;20217;-74
2023/07/11 08:48:54;;;;;;;6.15;3.85;;;;;;;;;;4937309;28;20083;-76
2023/07/11 08:51:50;;;;;;;12.87;4.90;;;;;;;;;;4940062;28;20089;-75
2023/07/11 08:54:22;;;;;;;8.80;4.28;;;;;;;;;;4950164;28;20197;-75
2023/07/11 08:56:50;;;;;;;5.30;4.22;;;;;;;;;;4929226;28;20043;-76
2023/07/11 08:59:25;;;;;;;8.32;4.07;;;;;;;;;;4963070;28;20031;-76
2023/07/11 09:01:55;;;;;;;5.35;4.55;;;;;;;;;;4941202;28;20030;-75
2023/07/11 09:04:23;;;;;;;8.90;5.27;;;;;;;;;;4932164;28;20452;-75
2023/07/11 09:06:59;;;;;;;8.43;4.47;;;;;;;;;;4933203;29;20627;-77
2023/07/11 09:09:25;;;;;;;5.70;4.20;;;;;;;;;;4948254;28;20023;-75
2023/07/11 09:12:00;;;;;;;7.70;5.10;;;;;;;;;;4936222;28;20031;-75
2023/07/11 09:14:48;;;;;;;8.38;4.82;;;;;;;;;;4953054;28;20543;-73
2023/07/11 09:17:27;;;;;;;6.05;4.55;;;;;;;;;;4932994;28;20071;-75
2023/07/11 09:20:04;;;;;;;8.20;4.88;;;;;;;;;;4946431;28;20488;-75
2023/07/11 09:22:41;;;;;;;8.82;4.80;;;;;;;;;;4949130;28;20476;-76
2023/07/11 09:25:26;;;;;;;6.20;4.55;;;;;;;;;;4949085;28;20055;-75
2023/07/11 09:27:56;;;;;;;7.00;4.28;;;;;;;;;;4951411;28;20039;-75
2023/07/11 09:30:43;;;;;;;7.07;4.03;;;;;;;;;;4958001;28;20376;-76
2023/07/11 09:33:23;;;;;;;7.95;3.70;;;;;;;;;;4953414;28;20031;-76
2023/07/11 09:35:51;;;;;;;6.13;4.00;;;;;;;;;;4961537;28;20436;-77
2023/07/11 09:38:30;;;;;;;5.63;4.57;;;;;;;;;;4955449;28;20087;-75
2023/07/11 09:41:31;;;;;;;10.05;4.55;;;;;;;;;;4936175;29;20035;-76
2023/07/11 09:43:57;;;;;;;;;;;;;;;;;;4945614;28;20157;-77
2023/07/11 09:46:25;;;;;;;5.60;4.10;;;;;;;;;;4936382;28;20062;-77
2023/07/11 09:48:56;;;;;;;11.77;5.28;;;;;;;;;;4940553;28;20439;-77
2023/07/11 09:51:30;;;;;;;8.27;5.78;;;;;;;;;;4956280;28;20034;-75
2023/07/11 09:53:56;;;;;;;8.68;5.45;;;;;;;;;;4950445;28;20050;-76
2023/07/11 09:56:24;;;;;;;6.85;5.13;;;;;;;;;;4953493;28;20019;-73
2023/07/11 09:58:53;;;;;;;11.32;6.05;;;;;;;;;;4948043;28;20078;-72
2023/07/11 10:01:24;;;;;;;6.50;5.53;;;;;;;;;;4951220;28;20031;-75
2023/07/11 10:03:56;;;;;;;10.68;5.28;;;;;;;;;;4955530;28;20063;-76
2023/07/11 10:06:44;;;;;;;6.82;6.10;;;;;;;;;;4934896;29;20027;-75
2023/07/11 10:09:24;;;;;;;7.03;5.20;;;;;;;;;;4958163;28;20042;-76
2023/07/11 10:11:57;;;;;;;6.55;5.10;;;;;;;;;;4962376;28;20038;-77
2023/07/11 10:14:39;;;;;;;6.97;4.88;;;;;;;;;;4930426;28;20458;-76
2023/07/11 10:17:18;;;;;;;7.10;4.70;;;;;;;;;;4936440;29;20035;-76
2023/07/11 10:19:58;;;;;;;8.07;4.72;;;;;;;;;;4950760;28;20035;-75
2023/07/11 10:22:27;;;;;;;6.78;4.68;;;;;;;;;;4941936;29;20379;-75
2023/07/11 10:25:02;;;;;;;5.72;4.82;;;;;;;;;;4945239;28;20063;-76
2023/07/11 10:27:32;;;;;;;7.65;5.40;;;;;;;;;;4931262;29;20027;-78
2023/07/11 10:30:01;;;;;;;7.78;5.03;;;;;;;;;;4932481;28;20031;-76
2023/07/11 10:32:42;;;;;;;7.65;5.30;;;;;;;;;;4947307;28;20027;-75
2023/07/11 10:35:09;;;;;;;;;;;;;;;;;;4944558;28;20073;-76
2023/07/11 10:37:54;;;;;;;9.38;5.22;;;;;;;;;;4939895;28;19913;-75
2023/07/11 10:40:41;;;;;;;6.55;5.18;;;;;;;;;;4940216;28;20093;-77
2023/07/11 10:43:29;;;;;;;6.38;5.03;;;;;;;;;;4950460;28;20031;-77
2023/07/11 10:46:11;;;;;;;9.15;5.28;;;;;;;;;;4951944;28;20074;-76
2023/07/11 10:48:43;;;;;;;8.43;4.80;;;;;;;;;;4912899;28;20027;-76
2023/07/11 10:51:22;;;;;;;7.32;5.13;;;;;;;;;;4937430;29;20034;-77
2023/07/11 10:53:59;;;;;;;8.00;5.55;;;;;;;;;;4943030;28;20439;-76
2023/07/11 10:56:32;;;;;;;10.10;5.25;;;;;;;;;;4951208;28;20030;-76
2023/07/11 10:58:58;;;;;;;8.07;4.90;;;;;;;;;;4953163;28;20039;-76
2023/07/11 11:01:40;;;;;;;6.72;5.53;;;;;;;;;;4948784;28;20051;-76
2023/07/11 11:04:27;;;;;;;8.50;5.25;;;;;;;;;;4950792;28;20069;-76
2023/07/11 11:07:09;;;;;;;8.02;5.53;;;;;;;;;;4957963;28;20041;-76
2023/07/11 11:09:51;;;;;;;8.82;5.55;;;;;;;;;;4928147;29;20035;-75
2023/07/11 11:12:35;;;;;;;10.27;5.35;;;;;;;;;;4947529;28;20051;-77
2023/07/11 11:15:19;;;;;;;7.10;4.85;;;;;;;;;;4953997;28;20125;-76
2023/07/11 11:18:36;;;;;;;12.60;5.03;;;;;;;;;;4941157;28;20470;-74
2023/07/11 11:21:28;;;;;;;6.72;4.60;;;;;;;;;;4919324;28;20044;-75
2023/07/11 11:24:06;;;;;;;11.30;5.82;;;;;;;;;;4947216;28;20111;-75
2023/07/11 11:27:05;;;;;;;10.00;5.80;;;;;;;;;;4957934;28;20253;-78
2023/07/11 11:29:46;;;;;;;9.45;6.03;;;;;;;;;;4939382;29;20042;-76
2023/07/11 11:32:21;;;;;;;12.52;4.88;;;;;;;;;;4963576;28;20555;-77
2023/07/11 11:35:12;;;;;;;11.25;4.78;;;;;;;;;;4942753;28;20736;-76
2023/07/11 11:38:05;;;;;;;9.05;5.10;;;;;;;;;;4935021;29;20127;-78
2023/07/11 11:40:36;;;;;;;7.95;5.35;;;;;;;;;;4930517;29;20114;-78
2023/07/11 11:43:06;;;;;;;6.75;5.10;;;;;;;;;;4932949;28;20054;-75
2023/07/11 11:45:32;;;;;;;6.38;5.32;;;;;;;;;;4953480;28;20043;-79
2023/07/11 11:48:02;;;;;;;8.70;6.43;;;;;;;;;;4937143;28;20098;-79
2023/07/11 11:50:31;;;;;;;7.65;6.32;;;;;;;;;;4946975;28;20508;-77
2023/07/11 11:53:18;;;;;;;11.63;7.75;;;;;;;;;;4946949;28;20186;-77
2023/07/11 11:56:01;;;;;;;8.65;6.07;;;;;;;;;;4934594;29;20027;-79
2023/07/11 11:58:30;;;;;;;12.73;5.70;;;;;;;;;;4950989;28;20069;-78
2023/07/11 12:01:00;;;;;;;6.85;5.95;;;;;;;;;;4954369;28;20066;-79
2023/07/11 12:03:28;;;;;;;8.85;6.53;;;;;;;;;;4942911;29;20031;-79
2023/07/11 12:05:57;;;;;;;13.13;7.32;;;;;;;;;;4952305;29;20206;-76
2023/07/11 12:08:34;;;;;;;9.15;7.35;;;;;;;;;;4961144;28;20046;-77
2023/07/11 12:11:09;;;;;;;7.50;6.30;;;;;;;;;;4936008;28;20066;-78
2023/07/11 12:13:36;;;;;;;8.23;5.68;;;;;;;;;;4940112;29;20023;-77
2023/07/11 12:16:07;;;;;;;8.10;6.30;;;;;;;;;;4944230;28;20037;-77
2023/07/11 12:18:46;;;;;;;10.68;6.20;;;;;;;;;;4931489;29;20089;-76
2023/07/11 12:21:14;;;;;;;10.77;6.68;;;;;;;;;;4931214;28;20030;-79
2023/07/11 12:23:43;;;;;;;12.63;7.10;;;;;;;;;;4931558;29;20039;-79
2023/07/11 12:26:11;;;;;;;9.20;6.20;;;;;;;;;;4947361;28;20035;-78
2023/07/11 12:28:37;;;;;;;9.63;7.03;;;;;;;;;;4941365;28;20492;-81
2023/07/11 12:31:13;;;;;;;12.70;7.00;;;;;;;;;;4943011;28;20027;-78
2023/07/11 12:33:39;;;;;;;10.30;6.65;;;;;;;;;;4937549;29;20023;-78
2023/07/11 12:36:29;;;;;;;7.15;5.82;;;;;;;;;;4940305;28;20052;-78
2023/07/11 12:39:14;;;;;;;;;;;;;;;;;;4936038;28;20443;-79
2023/07/11 12:41:53;;;;;;;8.05;6.15;;;;;;;;;;4933939;29;20291;-79
2023/07/11 12:44:19;;;;;;;8.70;6.55;;;;;;;;;;4926515;29;20378;-77
2023/07/11 12:46:48;;;;;;;9.68;6.57;;;;;;;;;;4933774;29;20036;-79
2023/07/11 12:49:28;;;;;;;18.95;8.00;;;;;;;;;;4956149;28;20537;-75
2023/07/11 12:52:10;;;;;;;10.43;6.00;;;;;;;;;;4941031;28;20035;-79
2023/07/11 12:54:36;;;;;;;8.43;6.78;;;;;;;;;;4928440;28;20045;-77
2023/07/11 12:57:02;;;;;;;10.90;5.90;;;;;;;;;;4929771;29;20035;-78
2023/07/11 12:59:30;;;;;;;10.57;6.88;;;;;;;;;;4948835;29;20472;-78
2023/07/11 13:02:01;;;;;;;7.63;6.32;;;;;;;;;;4935339;29;20139;-78
2023/07/11 13:04:50;;;;;;;12.55;6.50;;;;;;;;;;4946070;28;20039;-78
2023/07/11 13:07:20;;;;;;;8.00;6.13;;;;;;;;;;4940059;29;20031;-77
2023/07/11 13:09:57;;;;;;;11.23;7.05;;;;;;;;;;4936539;29;20071;-79
2023/07/11 13:12:25;;;;;;;10.18;6.82;;;;;;;;;;4948590;29;20028;-78
2023/07/11 13:14:52;;;;;;;8.40;6.68;;;;;;;;;;4930316;29;20031;-78
2023/07/11 13:17:27;;;;;;;8.73;5.95;;;;;;;;;;4918615;29;20083;-77
2023/07/11 13:20:00;;;;;;;9.02;6.55;;;;;;;;;;4936122;29;20027;-77
2023/07/11 13:22:27;;;;;;;8.00;6.45;;;;;;;;;;4934463;29;20480;-77
2023/07/11 13:24:56;;;;;;;7.40;6.70;;;;;;;;;;4945756;28;20142;-78
2023/07/11 13:27:26;;;;;;;;;;;;;;;;;;4931044;29;20031;-77
2023/07/11 13:29:53;;;;;;;9.95;6.78;;;;;;;;;;4941189;29;19945;-77
2023/07/11 13:32:24;;;;;;;7.40;5.90;;;;;;;;;;4939106;28;20031;-77
2023/07/11 13:34:52;;;;;;;8.50;6.75;;;;;;;;;;4958742;29;20508;-77
2023/07/11 13:37:30;;;;;;;6.97;6.18;;;;;;;;;;4946437;29;20043;-77
2023/07/11 13:39:57;;;;;;;9.40;6.10;;;;;;;;;;4949703;29;20008;-77
2023/07/11 13:42:25;;;;;;;8.32;6.25;;;;;;;;;;4944763;29;20027;-78
2023/07/11 13:44:52;;;;;;;8.23;6.15;;;;;;;;;;4931993;29;20082;-78
2023/07/11 13:47:40;;;;;;;10.82;6.97;;;;;;;;;;4934172;29;20380;-77
2023/07/11 13:50:29;;;;;;;9.35;7.38;;;;;;;;;;4925467;29;20039;-76
2023/07/11 13:52:56;;;;;;;10.77;7.47;;;;;;;;;;4931297;28;20051;-79
2023/07/11 13:55:26;;;;;;;8.73;6.68;;;;;;;;;;4941822;28;20043;-77
2023/07/11 13:57:52;;;;;;;11.20;7.35;;;;;;;;;;4911090;29;20449;-77
2023/07/11 14:00:20;;;;;;;10.77;6.25;;;;;;;;;;4939870;28;20459;-77
2023/07/11 14:02:47;;;;;;;12.05;7.28;;;;;;;;;;4945341;29;20361;-78
2023/07/11 14:05:22;;;;;;;8.07;6.90;;;;;;;;;;4936138;28;20038;-78
2023/07/11 14:07:51;;;;;;;10.38;7.32;;;;;;;;;;4950579;28;20053;-83
2023/07/11 14:10:18;;;;;;;10.40;6.93;;;;;;;;;;4957778;28;20054;-77
2023/07/11 14:12:44;;;;;;;8.70;7.28;;;;;;;;;;4958765;28;20456;-79
2023/07/11 14:15:18;;;;;;;14.15;7.38;;;;;;;;;;4962386;29;20031;-77
2023/07/11 14:17:44;;;;;;;9.35;6.68;;;;;;;;;;4937167;29;20130;-75
2023/07/11 14:20:19;;;;;;;11.55;8.27;;;;;;;;;;4935317;29;20032;-76
2023/07/11 14:22:46;;;;;;;10.25;7.72;;;;;;;;;;4944339;29;20098;-76
2023/07/11 14:25:18;;;;;;;10.65;7.25;;;;;;;;;;4926487;29;20074;-77
2023/07/11 14:27:44;;;;;;;13.20;7.22;;;;;;;;;;4945869;29;20027;-77
2023/07/11 14:30:12;;;;;;;8.77;6.78;;;;;;;;;;4947130;29;20371;-78
2023/07/11 14:32:38;;;;;;;9.65;7.30;;;;;;;;;;4933344;29;20031;-76
2023/07/11 14:35:25;;;;;;;12.07;7.50;;;;;;;;;;4935804;29;20062;-76
2023/07/11 14:37:51;;;;;;;8.13;7.05;;;;;;;;;;4960527;28;20116;-77
2023/07/11 14:40:18;;;;;;;13.00;7.13;;;;;;;;;;4954989;29;20452;-76
2023/07/11 14:42:45;;;;;;;8.32;7.35;;;;;;;;;;4950050;29;20089;-76
2023/07/11 14:45:20;;;;;;;11.20;9.02;;;;;;;;;;4930127;29;20038;-78
2023/07/11 14:47:46;;;;;;;10.05;7.43;;;;;;;;;;4921240;29;20154;-78
2023/07/11 14:50:21;;;;;;;9.95;7.50;;;;;;;;;;4936007;29;20357;-77
2023/07/11 14:52:47;;;;;;;11.25;7.45;;;;;;;;;;4933297;28;20050;-76